createdAt,value
2022-10-04T00:00:08.778Z,1018.8
2022-10-04T00:01:17.953Z,1018.7
2022-10-04T00:02:27.116Z,1018.7
2022-10-04T00:03:36.322Z,1018.7
2022-10-04T00:04:45.480Z,1018.7
2022-10-04T00:05:54.641Z,1018.7
2022-10-04T00:07:03.817Z,1018.7
2022-10-04T00:08:12.999Z,1018.7
2022-10-04T00:09:22.154Z,1018.7
2022-10-04T00:10:31.332Z,1018.6
2022-10-04T00:11:40.516Z,1018.5
2022-10-04T00:12:48.691Z,1018.5
2022-10-04T00:13:57.879Z,1018.5
2022-10-04T00:15:07.038Z,1018.5
2022-10-04T00:16:16.217Z,1018.5
2022-10-04T00:17:25.384Z,1018.5
2022-10-04T00:18:34.573Z,1018.5
2022-10-04T00:19:43.727Z,1018.6
2022-10-04T00:20:52.905Z,1018.5
2022-10-04T00:22:02.081Z,1018.6
2022-10-04T00:23:11.255Z,1018.5
2022-10-04T00:24:20.421Z,1018.5
2022-10-04T00:25:29.593Z,1018.4
2022-10-04T00:26:38.774Z,1018.4
2022-10-04T00:27:46.947Z,1018.4
2022-10-04T00:28:56.129Z,1018.4
2022-10-04T00:30:05.304Z,1018.3
2022-10-04T00:31:14.466Z,1018.3
2022-10-04T00:32:23.643Z,1018.3
2022-10-04T00:33:32.824Z,1018.3
2022-10-04T00:34:41.996Z,1018.3
2022-10-04T00:35:51.150Z,1018.4
2022-10-04T00:37:00.353Z,1018.4
2022-10-04T00:38:09.545Z,1018.4
2022-10-04T00:39:18.710Z,1018.4
2022-10-04T00:40:27.916Z,1018.4
2022-10-04T00:41:37.025Z,1018.4
2022-10-04T00:42:45.224Z,1018.3
2022-10-04T00:43:53.419Z,1018.3
2022-10-04T00:45:02.582Z,1018.3
2022-10-04T00:46:11.744Z,1018.3
2022-10-04T00:47:20.927Z,1018.3
2022-10-04T00:48:30.112Z,1018.3
2022-10-04T00:49:39.272Z,1018.2
2022-10-04T00:50:48.458Z,1018.2
2022-10-04T00:51:57.606Z,1018.2
2022-10-04T00:53:06.788Z,1018.1
2022-10-04T00:54:15.952Z,1018.1
2022-10-04T00:55:25.124Z,1018.1
2022-10-04T00:56:34.362Z,1018.1
2022-10-04T00:57:43.477Z,1018.1
2022-10-04T00:58:51.665Z,1018.1
2022-10-04T01:00:00.842Z,1018.1
2022-10-04T01:01:10.089Z,1018.2
2022-10-04T01:02:19.212Z,1018.1
2022-10-04T01:03:28.374Z,1018.2
2022-10-04T01:04:37.526Z,1018.1
2022-10-04T01:05:46.750Z,1018.1
2022-10-04T01:06:55.869Z,1018.1
2022-10-04T01:08:05.054Z,1018.1
2022-10-04T01:09:14.285Z,1018.1
2022-10-04T01:10:23.427Z,1018.1
2022-10-04T01:11:32.589Z,1018.1
2022-10-04T01:12:41.777Z,1018.1
2022-10-04T01:13:49.927Z,1018.1
2022-10-04T01:14:59.107Z,1018.1
2022-10-04T01:16:08.265Z,1018.1
2022-10-04T01:17:17.436Z,1018.1
2022-10-04T01:18:26.609Z,1018.1
2022-10-04T01:19:35.778Z,1018.1
2022-10-04T01:20:44.947Z,1018
2022-10-04T01:21:54.127Z,1018.1
2022-10-04T01:23:03.303Z,1018.1
2022-10-04T01:24:12.479Z,1018.1
2022-10-04T01:25:21.637Z,1018
2022-10-04T01:27:39.985Z,1018
2022-10-04T01:28:48.179Z,1018
2022-10-04T01:29:57.351Z,1017.9
2022-10-04T01:31:06.532Z,1017.9
2022-10-04T01:32:15.690Z,1017.9
2022-10-04T01:33:24.885Z,1017.9
2022-10-04T01:34:34.042Z,1017.9
2022-10-04T01:35:43.208Z,1017.8
2022-10-04T01:36:52.429Z,1017.8
2022-10-04T01:38:01.591Z,1017.8
2022-10-04T01:39:10.749Z,1017.8
2022-10-04T01:40:19.913Z,1017.7
2022-10-04T01:41:29.074Z,1017.7
2022-10-04T01:42:38.266Z,1017.7
2022-10-04T01:43:46.449Z,1017.7
2022-10-04T01:44:55.607Z,1017.7
2022-10-04T01:46:04.769Z,1017.7
2022-10-04T01:47:13.957Z,1017.6
2022-10-04T01:48:23.118Z,1017.7
2022-10-04T01:49:32.294Z,1017.7
2022-10-04T01:50:41.463Z,1017.7
2022-10-04T01:51:50.682Z,1017.7
2022-10-04T01:52:59.824Z,1017.8
2022-10-04T01:54:08.998Z,1017.8
2022-10-04T01:55:18.174Z,1017.7
2022-10-04T01:56:27.330Z,1017.8
2022-10-04T01:57:36.502Z,1017.7
2022-10-04T01:58:44.691Z,1017.7
2022-10-04T01:59:53.867Z,1017.7
2022-10-04T02:01:03.058Z,1017.8
2022-10-04T02:02:12.207Z,1017.7
2022-10-04T02:03:21.382Z,1017.6
2022-10-04T02:04:30.555Z,1017.6
2022-10-04T02:05:39.726Z,1017.5
2022-10-04T02:06:48.895Z,1017.6
2022-10-04T02:07:58.077Z,1017.6
2022-10-04T02:09:07.248Z,1017.6
2022-10-04T02:10:16.423Z,1017.6
2022-10-04T02:11:25.652Z,1017.5
2022-10-04T02:12:34.765Z,1017.5
2022-10-04T02:13:42.957Z,1017.5
2022-10-04T02:14:52.126Z,1017.6
2022-10-04T02:16:01.304Z,1017.5
2022-10-04T02:17:10.476Z,1017.6
2022-10-04T02:18:19.638Z,1017.6
2022-10-04T02:19:28.814Z,1017.5
2022-10-04T02:20:37.990Z,1017.5
2022-10-04T02:21:47.155Z,1017.5
2022-10-04T02:22:56.345Z,1017.5
2022-10-04T02:24:05.505Z,1017.5
2022-10-04T02:25:14.694Z,1017.5
2022-10-04T02:26:23.840Z,1017.5
2022-10-04T02:27:33.038Z,1017.4
2022-10-04T02:28:42.190Z,1017.5
2022-10-04T02:29:50.396Z,1017.5
2022-10-04T02:30:59.548Z,1017.5
2022-10-04T02:32:08.724Z,1017.4
2022-10-04T02:33:17.897Z,1017.5
2022-10-04T02:34:27.067Z,1017.4
2022-10-04T02:35:36.250Z,1017.5
2022-10-04T02:36:45.416Z,1017.4
2022-10-04T02:37:54.582Z,1017.4
2022-10-04T02:39:03.768Z,1017.4
2022-10-04T02:40:12.930Z,1017.4
2022-10-04T02:41:22.122Z,1017.4
2022-10-04T02:42:31.281Z,1017.4
2022-10-04T02:43:40.525Z,1017.4
2022-10-04T02:44:48.677Z,1017.4
2022-10-04T02:45:57.905Z,1017.3
2022-10-04T02:47:06.979Z,1017.3
2022-10-04T02:48:16.148Z,1017.3
2022-10-04T02:49:25.328Z,1017.3
2022-10-04T02:50:34.489Z,1017.3
2022-10-04T02:51:43.678Z,1017.2
2022-10-04T02:54:02.020Z,1017.3
2022-10-04T02:55:11.226Z,1017.2
2022-10-04T02:56:20.368Z,1017.3
2022-10-04T02:57:29.544Z,1017.2
2022-10-04T02:58:38.711Z,1017.3
2022-10-04T02:59:46.902Z,1017.2
2022-10-04T03:00:56.078Z,1017.3
2022-10-04T03:02:05.251Z,1017.2
2022-10-04T03:03:14.420Z,1017.2
2022-10-04T03:04:23.600Z,1017.2
2022-10-04T03:05:32.789Z,1017.2
2022-10-04T03:06:41.925Z,1017.2
2022-10-04T03:07:51.096Z,1017.2
2022-10-04T03:09:00.267Z,1017.3
2022-10-04T03:10:09.459Z,1017.2
2022-10-04T03:11:18.620Z,1017.3
2022-10-04T03:12:27.791Z,1017.3
2022-10-04T03:14:46.143Z,1017.2
2022-10-04T03:15:54.323Z,1017.2
2022-10-04T03:17:03.538Z,1017.2
2022-10-04T03:18:12.700Z,1017.1
2022-10-04T03:19:21.845Z,1017.2
2022-10-04T03:20:31.027Z,1017.2
2022-10-04T03:21:40.262Z,1017.2
2022-10-04T03:22:49.363Z,1017.2
2022-10-04T03:23:58.539Z,1017.2
2022-10-04T03:27:26.055Z,1017.1
2022-10-04T03:28:34.241Z,1017.1
2022-10-04T03:29:42.427Z,1017.1
2022-10-04T03:30:51.608Z,1017.1
2022-10-04T03:32:00.773Z,1017
2022-10-04T03:33:09.942Z,1017
2022-10-04T03:34:19.117Z,1017
2022-10-04T03:35:28.289Z,1017
2022-10-04T03:36:37.470Z,1017
2022-10-04T03:37:46.640Z,1016.9
2022-10-04T03:38:55.848Z,1016.9
2022-10-04T03:40:05.000Z,1016.9
2022-10-04T03:41:13.233Z,1016.9
2022-10-04T03:42:21.365Z,1016.9
2022-10-04T03:43:30.536Z,1016.9
2022-10-04T03:44:39.747Z,1016.9
2022-10-04T03:45:48.878Z,1016.9
2022-10-04T03:46:58.050Z,1016.9
2022-10-04T03:48:07.222Z,1016.8
2022-10-04T03:49:16.403Z,1016.8
2022-10-04T03:50:25.577Z,1016.9
2022-10-04T03:51:34.744Z,1016.8
2022-10-04T03:52:43.912Z,1016.8
2022-10-04T03:53:53.090Z,1016.8
2022-10-04T03:55:02.259Z,1016.8
2022-10-04T03:56:11.426Z,1016.8
2022-10-04T03:57:19.617Z,1016.8
2022-10-04T03:58:28.796Z,1016.7
2022-10-04T03:59:37.967Z,1016.8
2022-10-04T04:00:47.144Z,1016.7
2022-10-04T04:01:56.309Z,1016.6
2022-10-04T04:03:05.475Z,1016.7
2022-10-04T04:04:14.649Z,1016.6
2022-10-04T04:06:33.002Z,1016.7
2022-10-04T04:07:42.175Z,1016.7
2022-10-04T04:08:51.343Z,1016.7
2022-10-04T04:10:00.512Z,1016.7
2022-10-04T04:11:09.698Z,1016.7
2022-10-04T04:12:17.875Z,1016.7
2022-10-04T04:13:27.056Z,1016.7
2022-10-04T04:14:36.228Z,1016.7
2022-10-04T04:15:45.402Z,1016.7
2022-10-04T04:16:54.568Z,1016.7
2022-10-04T04:18:03.735Z,1016.7
2022-10-04T04:19:12.920Z,1016.7
2022-10-04T04:20:22.082Z,1016.7
2022-10-04T04:21:31.256Z,1016.7
2022-10-04T04:22:40.432Z,1016.6
2022-10-04T04:23:49.608Z,1016.6
2022-10-04T04:24:58.770Z,1016.6
2022-10-04T04:26:07.949Z,1016.6
2022-10-04T04:27:16.158Z,1016.6
2022-10-04T04:28:25.322Z,1016.5
2022-10-04T04:29:34.488Z,1016.6
2022-10-04T04:30:43.655Z,1016.6
2022-10-04T04:31:52.822Z,1016.5
2022-10-04T04:33:02.027Z,1016.5
2022-10-04T04:34:11.186Z,1016.5
2022-10-04T04:35:19.430Z,1016.5
2022-10-04T04:36:28.545Z,1016.5
2022-10-04T04:37:37.742Z,1016.5
2022-10-04T04:38:46.920Z,1016.5
2022-10-04T04:39:56.089Z,1016.5
2022-10-04T04:41:05.241Z,1016.5
2022-10-04T04:42:14.400Z,1016.5
2022-10-04T04:43:23.577Z,1016.5
2022-10-04T04:44:32.752Z,1016.5
2022-10-04T04:45:41.929Z,1016.5
2022-10-04T04:48:00.267Z,1016.5
2022-10-04T04:49:09.490Z,1016.5
2022-10-04T04:50:17.625Z,1016.6
2022-10-04T04:51:26.809Z,1016.5
2022-10-04T04:53:45.143Z,1016.6
2022-10-04T04:54:54.324Z,1016.6
2022-10-04T04:56:03.489Z,1016.5
2022-10-04T04:57:12.693Z,1016.6
2022-10-04T04:58:21.839Z,1016.6
2022-10-04T04:59:31.009Z,1016.6
2022-10-04T05:00:40.188Z,1016.6
2022-10-04T05:01:49.346Z,1016.6
2022-10-04T05:02:58.530Z,1016.7
2022-10-04T05:04:07.704Z,1016.7
2022-10-04T05:05:15.960Z,1016.7
2022-10-04T05:06:25.062Z,1016.7
2022-10-04T05:07:34.234Z,1016.6
2022-10-04T05:08:43.401Z,1016.7
2022-10-04T05:09:52.583Z,1016.7
2022-10-04T05:11:01.744Z,1016.7
2022-10-04T05:12:10.926Z,1016.7
2022-10-04T05:13:20.098Z,1016.6
2022-10-04T05:14:29.261Z,1016.6
2022-10-04T05:15:38.441Z,1016.7
2022-10-04T05:16:47.608Z,1016.7
2022-10-04T05:17:56.797Z,1016.6
2022-10-04T05:19:05.970Z,1016.6
2022-10-04T05:20:14.177Z,1016.6
2022-10-04T05:21:23.321Z,1016.6
2022-10-04T05:22:32.493Z,1016.7
2022-10-04T05:23:41.661Z,1016.7
2022-10-04T05:24:50.853Z,1016.6
2022-10-04T05:26:00.007Z,1016.6
2022-10-04T05:27:09.177Z,1016.7
2022-10-04T05:28:18.355Z,1016.7
2022-10-04T05:29:27.527Z,1016.6
2022-10-04T05:30:36.699Z,1016.6
2022-10-04T05:31:45.885Z,1016.6
2022-10-04T05:32:55.036Z,1016.6
2022-10-04T05:34:04.277Z,1016.5
2022-10-04T05:35:12.407Z,1016.6
2022-10-04T05:36:21.586Z,1016.5
2022-10-04T05:37:30.759Z,1016.6
2022-10-04T05:38:39.935Z,1016.6
2022-10-04T05:39:49.100Z,1016.6
2022-10-04T05:40:58.296Z,1016.6
2022-10-04T05:42:07.461Z,1016.6
2022-10-04T05:43:16.613Z,1016.6
2022-10-04T05:44:25.833Z,1016.6
2022-10-04T05:45:34.962Z,1016.6
2022-10-04T05:46:44.128Z,1016.6
2022-10-04T05:47:53.298Z,1016.6
2022-10-04T05:49:02.488Z,1016.5
2022-10-04T05:50:10.704Z,1016.6
2022-10-04T05:51:19.838Z,1016.6
2022-10-04T05:52:29.010Z,1016.6
2022-10-04T05:53:38.191Z,1016.6
2022-10-04T05:54:47.350Z,1016.6
2022-10-04T05:55:56.557Z,1016.6
2022-10-04T05:57:05.754Z,1016.6
2022-10-04T05:58:14.905Z,1016.6
2022-10-04T05:59:24.054Z,1016.6
2022-10-04T06:00:33.219Z,1016.6
2022-10-04T06:01:42.393Z,1016.6
2022-10-04T06:02:51.573Z,1016.6
2022-10-04T06:04:00.742Z,1016.6
2022-10-04T06:05:08.942Z,1016.7
2022-10-04T06:06:17.139Z,1016.6
2022-10-04T06:07:26.304Z,1016.7
2022-10-04T06:08:35.472Z,1016.7
2022-10-04T06:09:44.642Z,1016.7
2022-10-04T06:10:53.810Z,1016.7
2022-10-04T06:12:02.066Z,1016.7
2022-10-04T06:13:10.204Z,1016.6
2022-10-04T06:14:19.358Z,1016.6
2022-10-04T06:15:28.550Z,1016.6
2022-10-04T06:16:37.726Z,1016.7
2022-10-04T06:17:46.884Z,1016.7
2022-10-04T06:18:56.054Z,1016.7
2022-10-04T06:20:05.239Z,1016.7
2022-10-04T06:21:14.410Z,1016.7
2022-10-04T06:22:23.574Z,1016.6
2022-10-04T06:23:32.747Z,1016.6
2022-10-04T06:24:41.915Z,1016.6
2022-10-04T06:25:51.105Z,1016.6
2022-10-04T06:28:09.444Z,1016.6
2022-10-04T06:29:18.670Z,1016.6
2022-10-04T06:30:26.793Z,1016.6
2022-10-04T06:31:35.971Z,1016.6
2022-10-04T06:32:45.182Z,1016.6
2022-10-04T06:33:54.344Z,1016.5
2022-10-04T06:35:03.523Z,1016.5
2022-10-04T06:36:12.667Z,1016.5
2022-10-04T06:37:21.847Z,1016.5
2022-10-04T06:38:31.008Z,1016.5
2022-10-04T06:39:40.170Z,1016.5
2022-10-04T06:40:49.421Z,1016.5
2022-10-04T06:41:58.583Z,1016.5
2022-10-04T06:43:07.698Z,1016.5
2022-10-04T06:44:16.918Z,1016.4
2022-10-04T06:45:25.079Z,1016.4
2022-10-04T06:46:34.236Z,1016.4
2022-10-04T06:47:43.511Z,1016.4
2022-10-04T06:48:52.611Z,1016.4
2022-10-04T06:50:01.738Z,1016.4
2022-10-04T06:51:10.937Z,1016.4
2022-10-04T06:52:20.085Z,1016.4
2022-10-04T06:53:29.264Z,1016.5
2022-10-04T06:54:38.467Z,1016.5
2022-10-04T06:55:47.606Z,1016.5
2022-10-04T06:56:56.814Z,1016.4
2022-10-04T06:58:05.969Z,1016.4
2022-10-04T06:59:15.140Z,1016.4
2022-10-04T07:00:23.414Z,1016.5
2022-10-04T07:01:32.587Z,1016.4
2022-10-04T07:02:41.662Z,1016.5
2022-10-04T07:03:50.845Z,1016.4
2022-10-04T07:05:00.093Z,1016.5
2022-10-04T07:06:09.180Z,1016.5
2022-10-04T07:07:18.352Z,1016.5
2022-10-04T07:08:27.528Z,1016.5
2022-10-04T07:09:36.698Z,1016.6
2022-10-04T07:10:45.864Z,1016.5
2022-10-04T07:11:55.082Z,1016.5
2022-10-04T07:13:04.221Z,1016.6
2022-10-04T07:14:13.386Z,1016.5
2022-10-04T07:15:22.553Z,1016.6
2022-10-04T07:16:30.758Z,1016.5
2022-10-04T07:17:39.960Z,1016.6
2022-10-04T07:18:49.093Z,1016.5
2022-10-04T07:19:58.269Z,1016.5
2022-10-04T07:21:07.482Z,1016.6
2022-10-04T07:22:16.675Z,1016.5
2022-10-04T07:23:25.807Z,1016.6
2022-10-04T07:24:34.959Z,1016.5
2022-10-04T07:25:44.163Z,1016.5
2022-10-04T07:26:53.310Z,1016.6
2022-10-04T07:28:02.467Z,1016.6
2022-10-04T07:29:11.643Z,1016.6
2022-10-04T07:30:20.824Z,1016.5
2022-10-04T07:31:28.999Z,1016.6
2022-10-04T07:32:38.222Z,1016.6
2022-10-04T07:33:47.388Z,1016.6
2022-10-04T07:34:56.538Z,1016.6
2022-10-04T07:36:05.726Z,1016.5
2022-10-04T07:37:14.864Z,1016.6
2022-10-04T07:38:24.050Z,1016.6
2022-10-04T07:39:33.210Z,1016.6
2022-10-04T07:40:42.375Z,1016.7
2022-10-04T07:43:00.742Z,1016.6
2022-10-04T07:44:09.913Z,1016.7
2022-10-04T07:45:19.112Z,1016.6
2022-10-04T07:46:27.257Z,1016.7
2022-10-04T07:47:36.431Z,1016.6
2022-10-04T07:48:45.590Z,1016.6
2022-10-04T07:49:54.813Z,1016.7
2022-10-04T07:51:03.934Z,1016.7
2022-10-04T07:52:13.113Z,1016.7
2022-10-04T07:53:22.286Z,1016.7
2022-10-04T07:54:31.459Z,1016.7
2022-10-04T07:55:40.643Z,1016.6
2022-10-04T07:56:49.831Z,1016.6
2022-10-04T07:57:59.058Z,1016.6
2022-10-04T07:59:08.147Z,1016.6
2022-10-04T08:00:17.324Z,1016.6
2022-10-04T08:01:25.516Z,1016.6
2022-10-04T08:02:34.729Z,1016.7
2022-10-04T08:03:43.874Z,1016.7
2022-10-04T08:04:53.073Z,1016.7
2022-10-04T08:06:02.200Z,1016.6
2022-10-04T08:07:11.495Z,1016.6
2022-10-04T08:08:20.578Z,1016.7
2022-10-04T08:09:29.781Z,1016.7
2022-10-04T08:10:38.888Z,1016.7
2022-10-04T08:11:48.129Z,1016.7
2022-10-04T08:12:57.245Z,1016.7
2022-10-04T08:15:15.578Z,1016.7
2022-10-04T08:16:23.794Z,1016.7
2022-10-04T08:17:32.935Z,1016.7
2022-10-04T08:18:42.167Z,1016.8
2022-10-04T08:19:51.310Z,1016.8
2022-10-04T08:21:00.462Z,1016.8
2022-10-04T08:22:09.616Z,1016.7
2022-10-04T08:23:18.797Z,1016.7
2022-10-04T08:25:37.143Z,1016.7
2022-10-04T08:26:45.333Z,1016.7
2022-10-04T08:27:54.500Z,1016.7
2022-10-04T08:29:03.696Z,1016.6
2022-10-04T08:30:12.870Z,1016.6
2022-10-04T08:32:31.256Z,1016.6
2022-10-04T08:33:39.389Z,1016.6
2022-10-04T08:34:47.587Z,1016.6
2022-10-04T08:35:56.748Z,1016.6
2022-10-04T08:37:06.006Z,1016.6
2022-10-04T08:38:15.112Z,1016.6
2022-10-04T08:39:24.268Z,1016.6
2022-10-04T08:40:33.440Z,1016.5
2022-10-04T08:41:42.610Z,1016.5
2022-10-04T08:42:51.824Z,1016.4
2022-10-04T08:44:00.969Z,1016.4
2022-10-04T08:45:10.169Z,1016.4
2022-10-04T08:46:18.333Z,1016.4
2022-10-04T08:47:26.511Z,1016.4
2022-10-04T08:48:35.683Z,1016.5
2022-10-04T08:49:44.846Z,1016.4
2022-10-04T08:50:54.022Z,1016.5
2022-10-04T08:52:03.201Z,1016.4
2022-10-04T08:53:12.448Z,1016.4
2022-10-04T08:54:21.545Z,1016.4
2022-10-04T08:55:30.705Z,1016.5
2022-10-04T08:56:39.880Z,1016.5
2022-10-04T08:57:49.070Z,1016.4
2022-10-04T08:58:58.243Z,1016.4
2022-10-04T09:00:07.438Z,1016.3
2022-10-04T09:01:16.581Z,1016.3
2022-10-04T09:02:24.755Z,1016.3
2022-10-04T09:03:33.927Z,1016.2
2022-10-04T09:04:43.098Z,1016.2
2022-10-04T09:05:52.277Z,1016.1
2022-10-04T09:07:01.549Z,1016.2
2022-10-04T09:08:10.666Z,1016.1
2022-10-04T09:09:19.793Z,1016.1
2022-10-04T09:10:28.958Z,1016.2
2022-10-04T09:11:38.165Z,1016.2
2022-10-04T09:12:47.309Z,1016.2
2022-10-04T09:13:56.480Z,1016.2
2022-10-04T09:15:05.677Z,1016.1
2022-10-04T09:16:14.817Z,1016.1
2022-10-04T09:17:23.089Z,1016.1
2022-10-04T09:18:32.230Z,1016.1
2022-10-04T09:19:41.344Z,1016.1
2022-10-04T09:20:50.535Z,1016
2022-10-04T09:21:59.700Z,1016
2022-10-04T09:23:08.873Z,1016
2022-10-04T09:24:18.046Z,1016
2022-10-04T09:25:27.233Z,1016
2022-10-04T09:26:36.548Z,1016
2022-10-04T09:27:45.587Z,1016
2022-10-04T09:28:54.742Z,1016
2022-10-04T09:30:03.891Z,1016
2022-10-04T09:31:13.077Z,1016
2022-10-04T09:32:21.265Z,1016
2022-10-04T09:33:30.441Z,1015.9
2022-10-04T09:34:39.660Z,1015.9
2022-10-04T09:35:48.800Z,1015.9
2022-10-04T09:36:57.983Z,1015.9
2022-10-04T09:38:07.120Z,1015.9
2022-10-04T09:39:15.327Z,1015.9
2022-10-04T09:40:23.551Z,1016
2022-10-04T09:41:32.673Z,1015.9
2022-10-04T09:42:41.860Z,1015.9
2022-10-04T09:43:51.038Z,1015.9
2022-10-04T09:45:00.224Z,1015.9
2022-10-04T09:46:09.363Z,1016
2022-10-04T09:47:18.577Z,1015.9
2022-10-04T09:48:27.711Z,1015.9
2022-10-04T09:50:46.132Z,1015.9
2022-10-04T09:51:55.244Z,1015.9
2022-10-04T09:53:04.400Z,1015.8
2022-10-04T09:54:13.569Z,1015.9
2022-10-04T09:55:22.835Z,1015.8
2022-10-04T09:56:31.051Z,1015.9
2022-10-04T09:57:40.171Z,1015.8
2022-10-04T09:58:49.307Z,1015.8
2022-10-04T09:59:57.579Z,1015.8
2022-10-04T10:01:06.634Z,1015.8
2022-10-04T10:02:14.881Z,1015.7
2022-10-04T10:03:24.039Z,1015.7
2022-10-04T10:04:33.171Z,1015.7
2022-10-04T10:05:42.360Z,1015.8
2022-10-04T10:06:51.553Z,1015.7
2022-10-04T10:08:00.743Z,1015.7
2022-10-04T10:09:09.888Z,1015.8
2022-10-04T10:10:19.028Z,1015.7
2022-10-04T10:11:28.296Z,1015.8
2022-10-04T10:12:37.390Z,1015.7
2022-10-04T10:13:46.602Z,1015.7
2022-10-04T10:14:55.730Z,1015.7
2022-10-04T10:16:04.907Z,1015.8
2022-10-04T10:17:13.189Z,1015.8
2022-10-04T10:18:22.250Z,1015.7
2022-10-04T10:19:31.523Z,1015.7
2022-10-04T10:20:40.609Z,1015.7
2022-10-04T10:21:49.766Z,1015.7
2022-10-04T10:22:58.942Z,1015.7
2022-10-04T10:24:08.114Z,1015.7
2022-10-04T10:25:17.302Z,1015.7
2022-10-04T10:26:26.563Z,1015.7
2022-10-04T10:27:35.623Z,1015.7
2022-10-04T10:28:44.796Z,1015.7
2022-10-04T10:29:54.011Z,1015.6
2022-10-04T10:31:03.164Z,1015.6
2022-10-04T10:32:11.334Z,1015.6
2022-10-04T10:33:20.506Z,1015.7
2022-10-04T10:34:29.678Z,1015.6
2022-10-04T10:35:38.849Z,1015.6
2022-10-04T10:36:48.033Z,1015.6
2022-10-04T10:37:57.305Z,1015.6
2022-10-04T10:39:06.359Z,1015.6
2022-10-04T10:40:15.539Z,1015.7
2022-10-04T10:41:24.776Z,1015.7
2022-10-04T10:42:33.911Z,1015.7
2022-10-04T10:43:43.117Z,1015.7
2022-10-04T10:44:52.227Z,1015.7
2022-10-04T10:46:01.406Z,1015.7
2022-10-04T10:47:09.587Z,1015.6
2022-10-04T10:48:18.746Z,1015.7
2022-10-04T10:49:27.920Z,1015.6
2022-10-04T10:50:37.103Z,1015.7
2022-10-04T10:51:46.277Z,1015.7
2022-10-04T10:52:55.443Z,1015.7
2022-10-04T10:54:04.615Z,1015.7
2022-10-04T10:55:13.793Z,1015.7
2022-10-04T10:56:22.964Z,1015.7
2022-10-04T10:57:32.131Z,1015.7
2022-10-04T10:59:50.477Z,1015.8
2022-10-04T11:00:59.658Z,1015.8
2022-10-04T11:02:08.813Z,1015.7
2022-10-04T11:03:17.011Z,1015.7
2022-10-04T11:04:26.182Z,1015.7
2022-10-04T11:05:35.377Z,1015.6
2022-10-04T11:06:44.536Z,1015.6
2022-10-04T11:07:53.759Z,1015.6
2022-10-04T11:09:02.863Z,1015.6
2022-10-04T11:10:12.057Z,1015.5
2022-10-04T11:11:21.212Z,1015.6
2022-10-04T11:12:30.386Z,1015.5
2022-10-04T11:13:39.609Z,1015.5
2022-10-04T11:14:48.920Z,1015.5
2022-10-04T11:15:57.906Z,1015.5
2022-10-04T11:17:07.189Z,1015.5
2022-10-04T11:18:15.257Z,1015.5
2022-10-04T11:20:33.612Z,1015.5
2022-10-04T11:21:42.877Z,1015.4
2022-10-04T11:22:51.959Z,1015.4
2022-10-04T11:24:01.133Z,1015.3
2022-10-04T11:25:10.339Z,1015.3
2022-10-04T11:26:19.457Z,1015.3
2022-10-04T11:27:28.677Z,1015.3
2022-10-04T11:28:37.873Z,1015.3
2022-10-04T11:29:47.003Z,1015.3
2022-10-04T11:30:56.156Z,1015.2
2022-10-04T11:32:05.328Z,1015.2
2022-10-04T11:33:13.518Z,1015.1
2022-10-04T11:34:22.706Z,1015.1
2022-10-04T11:35:31.879Z,1015.1
2022-10-04T11:36:41.186Z,1015.1
2022-10-04T11:37:50.273Z,1015.1
2022-10-04T11:38:59.522Z,1015.1
2022-10-04T11:40:08.551Z,1015.1
2022-10-04T11:41:17.756Z,1015
2022-10-04T11:42:26.894Z,1015.1
2022-10-04T11:43:36.092Z,1015
2022-10-04T11:44:45.239Z,1015
2022-10-04T11:45:54.402Z,1015
2022-10-04T11:47:03.647Z,1015
2022-10-04T11:48:11.837Z,1015
2022-10-04T11:49:20.954Z,1015
2022-10-04T11:50:30.108Z,1015
2022-10-04T11:51:39.280Z,1015
2022-10-04T11:52:48.456Z,1015.1
2022-10-04T11:55:06.798Z,1015
2022-10-04T11:56:15.988Z,1015
2022-10-04T11:57:25.220Z,1015
2022-10-04T11:58:34.328Z,1014.9
2022-10-04T11:59:43.484Z,1015
2022-10-04T12:00:52.654Z,1015
2022-10-04T12:02:01.886Z,1015
2022-10-04T12:03:10.063Z,1014.9
2022-10-04T12:04:19.186Z,1015
2022-10-04T12:05:28.357Z,1015
2022-10-04T12:06:37.706Z,1014.9
2022-10-04T12:07:46.843Z,1015
2022-10-04T12:08:55.889Z,1015
2022-10-04T12:10:05.107Z,1015
2022-10-04T12:11:14.240Z,1014.9
2022-10-04T12:13:32.612Z,1014.9
2022-10-04T12:14:41.790Z,1014.9
2022-10-04T12:15:51.026Z,1014.9
2022-10-04T12:17:00.147Z,1014.9
2022-10-04T12:18:08.280Z,1014.9
2022-10-04T12:19:17.448Z,1014.8
2022-10-04T12:20:26.620Z,1014.8
2022-10-04T12:21:35.796Z,1014.9
2022-10-04T12:22:44.970Z,1014.9
2022-10-04T12:23:54.161Z,1014.8
2022-10-04T12:25:03.333Z,1014.8
2022-10-04T12:26:12.487Z,1014.7
2022-10-04T12:27:21.683Z,1014.7
2022-10-04T12:28:30.828Z,1014.6
2022-10-04T12:29:40.024Z,1014.6
2022-10-04T12:30:49.179Z,1014.6
2022-10-04T12:31:58.356Z,1014.5
2022-10-04T12:33:06.539Z,1014.4
2022-10-04T12:34:15.720Z,1014.5
2022-10-04T12:35:24.885Z,1014.5
2022-10-04T12:36:34.190Z,1014.5
2022-10-04T12:37:43.376Z,1014.5
2022-10-04T12:38:52.509Z,1014.5
2022-10-04T12:41:10.765Z,1014.5
2022-10-04T12:42:19.911Z,1014.5
2022-10-04T12:43:29.093Z,1014.5
2022-10-04T12:44:38.264Z,1014.5
2022-10-04T12:45:47.437Z,1014.5
2022-10-04T12:46:56.717Z,1014.4
2022-10-04T12:48:04.823Z,1014.3
2022-10-04T12:49:13.983Z,1014.2
2022-10-04T12:50:23.142Z,1014.2
2022-10-04T12:51:32.310Z,1014.2
2022-10-04T12:52:41.511Z,1014.2
2022-10-04T12:53:50.774Z,1014.1
2022-10-04T12:54:59.861Z,1014.1
2022-10-04T12:56:09.037Z,1014.1
2022-10-04T12:57:18.176Z,1014.1
2022-10-04T12:58:27.391Z,1014.1
2022-10-04T12:59:36.525Z,1014.1
2022-10-04T13:00:45.694Z,1014.1
2022-10-04T13:01:54.880Z,1014.1
2022-10-04T13:03:03.063Z,1014.1
2022-10-04T13:04:12.219Z,1014.1
2022-10-04T13:05:21.407Z,1014.1
2022-10-04T13:06:30.609Z,1014.1
2022-10-04T13:07:39.847Z,1014.1
2022-10-04T13:08:48.937Z,1014.1
2022-10-04T13:09:58.160Z,1014.1
2022-10-04T13:11:07.306Z,1014.1
2022-10-04T13:12:16.430Z,1014.1
2022-10-04T13:13:25.677Z,1014
2022-10-04T13:14:34.777Z,1014
2022-10-04T13:15:43.937Z,1013.9
2022-10-04T13:16:53.116Z,1014
2022-10-04T13:18:02.294Z,1014
2022-10-04T13:19:10.469Z,1014
2022-10-04T13:20:19.644Z,1013.9
2022-10-04T13:21:28.813Z,1014
2022-10-04T13:22:38.037Z,1013.9
2022-10-04T13:23:47.160Z,1013.9
2022-10-04T13:24:56.356Z,1013.9
2022-10-04T13:26:05.655Z,1013.9
2022-10-04T13:27:14.679Z,1013.9
2022-10-04T13:28:23.859Z,1013.8
2022-10-04T13:29:33.026Z,1013.9
2022-10-04T13:30:42.208Z,1014
2022-10-04T13:31:51.471Z,1013.9
2022-10-04T13:33:00.536Z,1013.9
2022-10-04T13:34:08.732Z,1013.9
2022-10-04T13:35:17.895Z,1013.8
2022-10-04T13:36:27.165Z,1013.8
2022-10-04T13:37:36.242Z,1013.8
2022-10-04T13:38:45.421Z,1013.8
2022-10-04T13:39:54.582Z,1013.8
2022-10-04T13:41:03.753Z,1013.8
2022-10-04T13:42:12.934Z,1013.7
2022-10-04T13:43:22.118Z,1013.6
2022-10-04T13:44:31.267Z,1013.7
2022-10-04T13:45:40.444Z,1013.7
2022-10-04T13:46:49.608Z,1013.6
2022-10-04T13:47:58.822Z,1013.6
2022-10-04T13:49:06.973Z,1013.5
2022-10-04T13:50:16.149Z,1013.5
2022-10-04T13:51:25.326Z,1013.5
2022-10-04T13:52:34.516Z,1013.4
2022-10-04T13:53:43.660Z,1013.5
2022-10-04T13:54:52.883Z,1013.5
2022-10-04T13:56:02.014Z,1013.5
2022-10-04T13:57:11.207Z,1013.5
2022-10-04T13:58:20.362Z,1013.5
2022-10-04T13:59:29.538Z,1013.5
2022-10-04T14:00:38.700Z,1013.5
2022-10-04T14:02:57.083Z,1013.5
2022-10-04T14:04:06.234Z,1013.4
2022-10-04T14:05:14.399Z,1013.5
2022-10-04T14:06:23.582Z,1013.4
2022-10-04T14:07:32.748Z,1013.4
2022-10-04T14:08:41.971Z,1013.4
2022-10-04T14:09:51.101Z,1013.4
2022-10-04T14:11:00.263Z,1013.5
2022-10-04T14:12:09.474Z,1013.4
2022-10-04T14:13:18.614Z,1013.5
2022-10-04T14:14:27.782Z,1013.4
2022-10-04T14:15:36.993Z,1013.4
2022-10-04T14:16:46.121Z,1013.4
2022-10-04T14:17:55.297Z,1013.4
2022-10-04T14:19:04.507Z,1013.4
2022-10-04T14:20:12.690Z,1013.5
2022-10-04T14:21:21.825Z,1013.4
2022-10-04T14:22:31.069Z,1013.5
2022-10-04T14:23:40.187Z,1013.5
2022-10-04T14:24:49.405Z,1013.4
2022-10-04T14:25:58.522Z,1013.4
2022-10-04T14:27:07.720Z,1013.5
2022-10-04T14:28:16.878Z,1013.3
2022-10-04T14:29:26.053Z,1013.3
2022-10-04T14:31:44.384Z,1013.3
2022-10-04T14:32:53.542Z,1013.3
2022-10-04T14:34:02.729Z,1013.3
2022-10-04T14:35:10.962Z,1013.3
2022-10-04T14:36:20.084Z,1013.3
2022-10-04T14:37:29.402Z,1013.3
2022-10-04T14:38:38.545Z,1013.4
2022-10-04T14:39:47.614Z,1013.4
2022-10-04T14:40:56.766Z,1013.3
2022-10-04T14:42:05.944Z,1013.3
2022-10-04T14:43:15.126Z,1013.2
2022-10-04T14:44:24.324Z,1013.2
2022-10-04T14:45:33.459Z,1013.2
2022-10-04T14:46:42.758Z,1013.2
2022-10-04T14:47:51.797Z,1013.2
2022-10-04T14:49:00.976Z,1013.2